Time;durP1;ratioP1;P1;durP2;ratioP2;P2;SDS_P1;SDS_P2;PMS_P1;PMS_P2;Temp;Humidity;BMP_temperature;BMP_pressure;BME280_temperature;BME280_humidity;BME280_pressure;Samples;Min_cycle;Max_cycle;Signal;HPM_P1;HPM_P2
2024/01/13 00:02:19;;;;;;;9.32;0.38;;;;;;;0.74;61.70;102526.63;4960819;28;20042;-72
2024/01/13 00:04:45;;;;;;;5.32;0.30;;;;;;;0.78;62.01;102517.28;4955787;28;21299;-72
2024/01/13 00:07:11;;;;;;;3.22;0.40;;;;;;;0.43;62.67;102512.03;4957067;28;20041;-70
2024/01/13 00:09:36;;;;;;;2.25;0.20;;;;;;;0.60;62.48;102509.94;4955786;28;20497;-71
2024/01/13 00:12:05;;;;;;;5.30;0.28;;;;;;;0.80;62.24;102505.34;4959531;28;20061;-72
2024/01/13 00:14:30;;;;;;;2.85;0.10;;;;;;;0.83;61.81;102505.41;4984126;28;20113;-72
2024/01/13 00:16:56;;;;;;;0.98;0.10;;;;;;;0.93;61.44;102507.41;4971545;28;20554;-71
2024/01/13 00:19:21;;;;;;;1.30;0.40;;;;;;;0.80;61.63;102508.78;4952016;28;20541;-70
2024/01/13 00:21:47;;;;;;;1.55;0.30;;;;;;;0.63;62.27;102504.84;4935665;28;21469;-69
2024/01/13 00:24:12;;;;;;;3.45;0.30;;;;;;;0.82;62.05;102495.94;4963497;28;20046;-70
2024/01/13 00:26:38;;;;;;;4.95;0.40;;;;;;;0.85;62.03;102496.88;4953647;28;20113;-70
2024/01/13 00:29:04;;;;;;;2.22;0.20;;;;;;;0.74;61.98;102488.00;4954861;28;20599;-69
2024/01/13 00:31:29;;;;;;;5.88;0.40;;;;;;;0.84;61.88;102492.56;4955254;28;20039;-72
2024/01/13 00:33:55;;;;;;;3.20;0.20;;;;;;;0.66;62.31;102490.38;4939045;28;20488;-70
2024/01/13 00:36:20;;;;;;;2.60;0.20;;;;;;;0.78;62.13;102488.97;4958728;28;20501;-70
2024/01/13 00:38:45;;;;;;;2.40;0.60;;;;;;;0.82;61.84;102488.22;4983320;28;20030;-70
2024/01/13 00:41:11;;;;;;;4.32;0.40;;;;;;;0.73;62.51;102480.25;4958028;28;20045;-70
2024/01/13 00:43:37;;;;;;;1.42;0.17;;;;;;;0.81;62.11;102479.59;4954977;28;20092;-72
2024/01/13 00:46:03;;;;;;;4.40;0.20;;;;;;;0.91;62.27;102475.59;4949918;28;20050;-72
2024/01/13 00:48:29;;;;;;;2.05;0.20;;;;;;;0.72;62.58;102463.06;4959097;28;20038;-68
2024/01/13 00:50:54;;;;;;;4.30;0.20;;;;;;;0.66;62.98;102456.06;4951819;28;20038;-69
2024/01/13 00:53:20;;;;;;;1.17;0.43;;;;;;;0.87;62.46;102453.16;4958217;28;20034;-69
2024/01/13 00:55:45;;;;;;;0.88;0.10;;;;;;;0.98;61.93;102462.03;4958139;28;20047;-69
2024/01/13 00:58:11;;;;;;;3.28;0.10;;;;;;;0.85;62.42;102449.69;4957084;28;20493;-69
2024/01/13 01:00:37;;;;;;;0.50;0.20;;;;;;;0.83;62.69;102453.91;4953345;28;20042;-68
2024/01/13 01:03:02;;;;;;;9.35;0.52;;;;;;;1.03;62.16;102439.84;4973470;28;20469;-70
2024/01/13 01:05:28;;;;;;;1.27;0.10;;;;;;;0.87;62.19;102442.88;4954755;28;20049;-69
2024/01/13 01:07:53;;;;;;;2.25;0.30;;;;;;;0.83;62.66;102441.91;4950305;28;20719;-70
2024/01/13 01:10:19;;;;;;;0.43;0.20;;;;;;;1.03;62.26;102436.41;4966558;28;20077;-70
2024/01/13 01:12:45;;;;;;;2.67;0.20;;;;;;;1.03;62.34;102432.13;4954523;28;20035;-71
2024/01/13 01:15:11;;;;;;;0.85;0.20;;;;;;;1.13;61.70;102422.03;4949006;28;20050;-71
2024/01/13 01:17:36;;;;;;;1.55;0.70;;;;;;;1.27;61.84;102421.53;4965211;28;20109;-70
2024/01/13 01:20:02;;;;;;;0.82;0.10;;;;;;;1.09;62.13;102423.69;4958401;28;20085;-70
2024/01/13 01:22:27;;;;;;;0.30;0.13;;;;;;;1.17;61.81;102413.56;4956906;28;20039;-70
2024/01/13 01:24:52;;;;;;;2.50;0.30;;;;;;;1.20;61.51;102418.81;4953611;28;20608;-69
2024/01/13 01:27:18;;;;;;;5.18;0.13;;;;;;;1.10;61.94;102417.69;4959525;28;21429;-69
2024/01/13 01:29:43;;;;;;;1.88;0.17;;;;;;;0.73;62.94;102413.34;4944929;28;20129;-70
2024/01/13 01:32:09;;;;;;;0.88;0.10;;;;;;;0.92;62.11;102399.22;4946072;28;20031;-70
2024/01/13 01:34:34;;;;;;;2.45;0.30;;;;;;;1.03;61.58;102403.78;4957610;28;20034;-71
2024/01/13 01:37:00;;;;;;;2.10;0.40;;;;;;;1.06;61.53;102401.31;4962367;28;20035;-70
2024/01/13 01:39:26;;;;;;;1.60;0.25;;;;;;;0.89;62.31;102400.03;4950314;28;20046;-69
2024/01/13 01:41:51;;;;;;;5.93;0.38;;;;;;;1.06;61.70;102396.16;4947530;28;20038;-71
2024/01/13 01:44:17;;;;;;;2.58;0.30;;;;;;;1.10;62.01;102390.25;4956964;28;20618;-70
2024/01/13 01:46:45;;;;;;;5.25;0.52;;;;;;;1.02;61.66;102394.34;4954967;28;20045;-66
2024/01/13 01:49:14;;;;;;;1.65;0.20;;;;;;;0.81;62.17;102386.94;4955128;28;20047;-65
2024/01/13 01:51:42;;;;;;;0.60;0.20;;;;;;;1.01;62.18;102384.00;4949570;28;20065;-65
2024/01/13 01:54:07;;;;;;;2.42;0.20;;;;;;;0.92;62.54;102374.34;4953467;28;20049;-65
2024/01/13 01:56:34;;;;;;;3.38;0.30;;;;;;;0.87;62.66;102368.22;4964425;28;20034;-65
2024/01/13 01:59:02;;;;;;;12.10;0.45;;;;;;;0.73;63.17;102367.88;4948842;28;20290;-65
2024/01/13 02:01:30;;;;;;;3.83;0.20;;;;;;;0.97;62.28;102372.78;4950617;28;20034;-65
2024/01/13 02:03:57;;;;;;;5.32;0.30;;;;;;;0.94;62.82;102374.38;4942520;28;20454;-63
2024/01/13 02:06:23;;;;;;;4.05;0.13;;;;;;;0.79;62.86;102368.03;4957388;28;20026;-70
2024/01/13 02:08:49;;;;;;;8.35;0.57;;;;;;;0.99;62.71;102363.38;4954631;28;20265;-70
2024/01/13 02:11:15;;;;;;;2.63;0.30;;;;;;;0.90;62.62;102351.16;4946714;28;20105;-70
2024/01/13 02:13:45;;;;;;;1.40;0.30;;;;;;;1.06;62.04;102347.22;4940021;28;20114;-70
2024/01/13 02:16:11;;;;;;;3.80;0.25;;;;;;;0.99;62.56;102340.22;4938672;28;20068;-69
2024/01/13 02:18:37;;;;;;;0.47;0.10;;;;;;;0.49;63.90;102348.41;4928093;28;21619;-70
2024/01/13 02:21:03;;;;;;;1.25;0.10;;;;;;;0.97;62.36;102344.44;4946174;28;20046;-69
2024/01/13 02:23:29;;;;;;;1.73;0.10;;;;;;;1.11;62.30;102343.06;4977928;28;20041;-69
2024/01/13 02:25:56;;;;;;;5.28;0.20;;;;;;;0.97;62.48;102343.56;4951688;28;20068;-68
2024/01/13 02:28:21;;;;;;;1.65;0.10;;;;;;;0.97;62.07;102352.16;4975071;28;20119;-68
2024/01/13 02:30:47;;;;;;;1.10;0.10;;;;;;;0.82;63.11;102350.09;4952719;28;20137;-68
2024/01/13 02:33:12;;;;;;;8.63;0.32;;;;;;;0.47;63.77;102354.34;4953445;28;20100;-69
2024/01/13 02:35:37;;;;;;;2.22;0.20;;;;;;;0.60;64.00;102348.69;4984304;28;20129;-69
2024/01/13 02:38:03;;;;;;;2.28;0.20;;;;;;;0.84;63.22;102335.56;4951457;28;20035;-69
2024/01/13 02:40:29;;;;;;;1.13;0.30;;;;;;;0.90;62.82;102325.41;4961009;28;20042;-68
2024/01/13 02:42:54;;;;;;;4.68;0.22;;;;;;;0.56;63.55;102323.69;4960948;28;20034;-69
2024/01/13 02:45:20;;;;;;;3.53;0.20;;;;;;;0.61;63.75;102309.28;4967129;28;20054;-68
2024/01/13 02:48:04;;;;;;;4.90;0.20;;;;;;;0.64;63.26;102301.63;4953664;28;20474;-68
2024/01/13 02:50:29;;;;;;;5.05;0.10;;;;;;;0.84;62.42;102303.81;4946690;28;20043;-67
2024/01/13 02:52:55;;;;;;;1.85;0.10;;;;;;;0.89;62.64;102294.47;4945075;28;20041;-67
2024/01/13 02:55:21;;;;;;;2.58;0.40;;;;;;;0.98;62.38;102297.25;4954793;28;20070;-67
2024/01/13 02:57:46;;;;;;;3.05;0.20;;;;;;;0.59;63.42;102284.31;4950303;28;20112;-68
2024/01/13 03:00:13;;;;;;;4.13;0.13;;;;;;;0.82;62.69;102274.59;4949274;28;20038;-68
2024/01/13 03:02:39;;;;;;;3.72;0.17;;;;;;;0.77;63.07;102271.00;4969749;28;20037;-71
2024/01/13 03:05:08;;;;;;;2.45;0.20;;;;;;;0.68;62.92;102262.25;4955476;28;20197;-67
2024/01/13 03:07:34;;;;;;;0.80;0.10;;;;;;;0.82;62.87;102254.84;4952111;28;20592;-69
2024/01/13 03:10:00;;;;;;;3.92;0.17;;;;;;;0.95;62.41;102260.25;4928080;28;20074;-71
2024/01/13 03:12:25;;;;;;;1.85;0.10;;;;;;;0.87;62.64;102260.09;4935176;28;21097;-70
2024/01/13 03:14:51;;;;;;;1.83;0.50;;;;;;;0.93;62.90;102259.38;4934482;28;20474;-68
2024/01/13 03:17:16;;;;;;;1.73;0.38;;;;;;;0.60;63.45;102258.63;4948559;28;20112;-71
2024/01/13 03:19:42;;;;;;;2.35;0.20;;;;;;;0.86;62.57;102250.66;4954300;28;20070;-68
2024/01/13 03:22:07;;;;;;;3.45;0.20;;;;;;;0.74;62.91;102250.34;4922268;28;20065;-71
2024/01/13 03:24:33;;;;;;;3.47;0.25;;;;;;;0.89;62.97;102256.72;4927474;28;20173;-72
2024/01/13 03:26:58;;;;;;;5.57;0.20;;;;;;;0.64;63.19;102252.72;4930795;28;20134;-71
2024/01/13 03:29:24;;;;;;;3.05;0.20;;;;;;;0.75;63.27;102252.09;4912472;28;21653;-73
2024/01/13 03:31:53;;;;;;;4.90;0.30;;;;;;;0.45;63.94;102258.25;4930826;28;20035;-71
2024/01/13 03:34:18;;;;;;;2.08;0.10;;;;;;;0.82;62.91;102259.13;4938739;28;20493;-72
2024/01/13 03:36:44;;;;;;;4.03;0.10;;;;;;;0.66;62.90;102253.63;4958723;28;20069;-65
2024/01/13 03:39:10;;;;;;;5.88;0.17;;;;;;;0.72;63.01;102252.03;4952687;28;20235;-66
2024/01/13 03:41:35;;;;;;;1.50;0.10;;;;;;;0.50;63.55;102241.22;4950461;28;20026;-64
2024/01/13 03:44:01;;;;;;;3.33;0.03;;;;;;;0.66;63.11;102234.75;4969593;28;20481;-66
2024/01/13 03:46:26;;;;;;;1.45;0.05;;;;;;;0.62;63.08;102241.53;4954542;28;20046;-65
2024/01/13 03:48:52;;;;;;;0.22;0.00;;;;;;;0.79;62.77;102236.78;4944249;28;20042;-66
2024/01/13 03:51:17;;;;;;;3.50;0.22;;;;;;;0.62;62.95;102233.81;4959207;28;20223;-66
2024/01/13 03:53:43;;;;;;;0.50;0.17;;;;;;;0.76;62.39;102234.13;4967604;28;20564;-65
2024/01/13 03:56:08;;;;;;;0.75;0.00;;;;;;;0.37;63.37;102226.34;4977418;28;20137;-66
2024/01/13 03:58:35;;;;;;;2.78;0.43;;;;;;;0.49;63.66;102219.78;4955321;28;20113;-67
2024/01/13 04:01:00;;;;;;;0.70;0.57;;;;;;;0.37;63.87;102216.94;4953487;28;20065;-66
2024/01/13 04:03:26;;;;;;;3.47;0.50;;;;;;;0.54;63.06;102222.44;4958174;28;20617;-67
2024/01/13 04:05:52;;;;;;;0.20;0.00;;;;;;;0.62;62.93;102202.94;4970055;28;20070;-68
2024/01/13 04:08:18;;;;;;;1.95;0.50;;;;;;;0.60;63.01;102206.31;4966071;28;20034;-66
2024/01/13 04:10:44;;;;;;;3.03;0.10;;;;;;;0.40;63.42;102208.41;4957407;28;20049;-69
2024/01/13 04:13:10;;;;;;;2.15;0.10;;;;;;;0.58;62.73;102208.84;4955425;28;21013;-70
2024/01/13 04:15:36;;;;;;;2.80;0.10;;;;;;;0.66;62.52;102212.47;4961337;28;20094;-74
2024/01/13 04:18:01;;;;;;;0.65;0.00;;;;;;;0.80;62.52;102214.47;4957008;28;20453;-76
2024/01/13 04:20:27;;;;;;;1.42;0.00;;;;;;;0.79;62.13;102205.00;4961994;28;20038;-73
2024/01/13 04:22:52;;;;;;;2.05;0.00;;;;;;;0.70;61.90;102197.94;4971880;28;20048;-74
2024/01/13 04:25:18;;;;;;;3.63;0.10;;;;;;;0.59;62.38;102191.69;4949713;28;20126;-72
2024/01/13 04:27:43;;;;;;;0.20;0.00;;;;;;;0.26;63.35;102185.81;4959923;28;20065;-73
2024/01/13 04:30:10;;;;;;;3.08;0.10;;;;;;;0.27;63.43;102177.25;4954406;28;21478;-72
2024/01/13 04:32:35;;;;;;;2.17;0.50;;;;;;;0.04;64.46;102183.53;4959688;28;20485;-72
2024/01/13 04:35:01;;;;;;;2.58;0.10;;;;;;;0.30;63.62;102180.72;4967332;28;20079;-72
2024/01/13 04:37:26;;;;;;;1.75;0.10;;;;;;;0.42;63.24;102175.88;4940234;28;20042;-73
2024/01/13 04:39:52;;;;;;;0.95;0.25;;;;;;;0.56;62.65;102173.63;4944380;28;20220;-71
2024/01/13 04:42:18;;;;;;;1.27;0.10;;;;;;;0.43;63.14;102175.03;4951478;28;20030;-72
2024/01/13 04:44:43;;;;;;;2.15;0.75;;;;;;;0.41;63.47;102179.28;4932089;28;20047;-73
2024/01/13 04:47:10;;;;;;;0.90;0.00;;;;;;;0.26;64.06;102170.38;4913270;28;20270;-73
2024/01/13 04:49:35;;;;;;;2.30;0.05;;;;;;;0.29;63.93;102169.56;4919116;28;20057;-73
2024/01/13 04:52:01;;;;;;;2.00;0.10;;;;;;;0.66;62.77;102166.13;4911282;28;20038;-72
2024/01/13 04:54:27;;;;;;;1.58;0.10;;;;;;;0.77;62.46;102156.09;4907904;28;20126;-72
2024/01/13 04:56:53;;;;;;;3.20;0.00;;;;;;;0.46;63.76;102152.84;4933727;28;20084;-74
2024/01/13 04:59:18;;;;;;;0.38;0.00;;;;;;;0.51;63.12;102144.34;4952792;28;20034;-73
2024/01/13 05:01:43;;;;;;;2.10;0.05;;;;;;;0.55;63.43;102141.88;4960352;28;20037;-72
2024/01/13 05:04:09;;;;;;;1.25;0.20;;;;;;;0.49;63.64;102146.88;4952958;28;20038;-73
2024/01/13 05:06:35;;;;;;;4.60;0.10;;;;;;;0.48;63.79;102138.31;4960293;28;20065;-73
2024/01/13 05:09:02;;;;;;;0.40;0.00;;;;;;;0.52;63.72;102131.50;4953105;28;20112;-72
2024/01/13 05:11:28;;;;;;;0.38;0.00;;;;;;;0.53;64.24;102132.41;4959380;28;20041;-72
2024/01/13 05:13:53;;;;;;;1.17;0.10;;;;;;;-0.35;66.02;102126.06;4959927;28;20643;-73
2024/01/13 05:16:19;;;;;;;3.80;0.15;;;;;;;0.38;64.46;102138.06;4951724;28;20087;-65
2024/01/13 05:18:44;;;;;;;3.67;0.30;;;;;;;0.18;65.22;102119.59;4957170;28;20081;-67
2024/01/13 05:21:10;;;;;;;0.45;0.10;;;;;;;0.28;64.86;102101.84;4951749;28;20121;-68
2024/01/13 05:23:35;;;;;;;0.17;0.10;;;;;;;0.24;64.51;102101.75;4959612;28;20034;-69
2024/01/13 05:26:01;;;;;;;1.55;0.10;;;;;;;0.38;64.52;102100.34;4952707;28;20054;-69
2024/01/13 05:28:27;;;;;;;0.52;0.00;;;;;;;0.09;64.86;102089.41;4958203;28;20058;-71
2024/01/13 05:30:53;;;;;;;1.85;0.10;;;;;;;0.26;64.42;102093.22;4986997;28;20056;-71
2024/01/13 05:33:18;;;;;;;1.20;0.05;;;;;;;0.42;64.22;102097.00;4951928;28;21564;-72
2024/01/13 05:35:44;;;;;;;2.80;0.00;;;;;;;0.34;64.50;102102.81;4958437;28;20195;-68
2024/01/13 05:38:09;;;;;;;0.40;0.20;;;;;;;0.43;64.26;102100.44;4952147;28;20581;-69
2024/01/13 05:40:35;;;;;;;8.48;0.10;;;;;;;0.23;64.70;102106.03;4955110;28;20034;-68
2024/01/13 05:43:00;;;;;;;1.75;0.03;;;;;;;0.41;64.26;102109.81;4957276;28;20038;-66
2024/01/13 05:45:26;;;;;;;2.60;0.20;;;;;;;-0.34;66.28;102098.66;4950967;28;20537;-69
2024/01/13 05:47:51;;;;;;;0.17;0.10;;;;;;;-0.01;65.98;102095.19;4959664;28;20038;-69
2024/01/13 05:50:18;;;;;;;1.95;0.10;;;;;;;0.00;65.62;102084.91;4947051;28;20620;-67
2024/01/13 05:52:43;;;;;;;1.23;0.38;;;;;;;-0.10;66.54;102076.94;4959765;28;20030;-67
2024/01/13 05:55:09;;;;;;;3.53;0.17;;;;;;;-0.22;66.42;102073.25;4952495;28;20437;-69
2024/01/13 05:57:34;;;;;;;1.92;0.13;;;;;;;-0.02;65.97;102067.72;4963702;28;20039;-67
2024/01/13 05:59:59;;;;;;;0.57;0.05;;;;;;;-0.03;64.97;102054.00;4956463;28;20050;-69
2024/01/13 06:02:25;;;;;;;0.47;0.10;;;;;;;0.13;64.62;102050.06;4982077;28;20034;-69
2024/01/13 06:04:51;;;;;;;0.93;0.47;;;;;;;0.06;65.10;102038.78;4972845;28;20054;-66
2024/01/13 06:07:17;;;;;;;6.57;0.63;;;;;;;-0.02;65.80;102029.16;4954233;28;20030;-71
2024/01/13 06:09:42;;;;;;;1.77;0.20;;;;;;;-0.04;65.74;102025.69;4959992;28;20069;-70
2024/01/13 06:12:08;;;;;;;3.17;0.10;;;;;;;0.38;64.44;102014.59;4953046;28;20126;-71
2024/01/13 06:14:33;;;;;;;2.40;0.70;;;;;;;0.35;64.31;102009.41;4957224;28;20042;-72
2024/01/13 06:16:59;;;;;;;1.48;0.10;;;;;;;0.26;64.32;102005.78;4959451;28;20153;-74
2024/01/13 06:19:24;;;;;;;1.95;0.10;;;;;;;0.09;64.63;102002.00;4953806;28;21644;-72
2024/01/13 06:21:50;;;;;;;0.65;0.10;;;;;;;0.30;64.08;102011.00;4938707;28;21480;-69
2024/01/13 06:24:15;;;;;;;3.85;0.10;;;;;;;0.09;64.30;102007.13;4950823;28;20565;-70
2024/01/13 06:26:41;;;;;;;2.30;0.10;;;;;;;-0.07;64.73;101993.06;4960683;28;20034;-73
2024/01/13 06:29:07;;;;;;;4.35;0.20;;;;;;;-0.23;65.79;101989.31;4942544;28;20131;-72
2024/01/13 06:31:33;;;;;;;1.75;0.03;;;;;;;0.20;64.50;101994.50;4962876;28;20807;-68
2024/01/13 06:33:59;;;;;;;1.40;0.25;;;;;;;-0.05;65.40;101982.84;4965763;28;20035;-71
2024/01/13 06:36:24;;;;;;;2.80;0.10;;;;;;;0.03;65.04;101977.03;4954691;28;20022;-73
2024/01/13 06:38:50;;;;;;;0.55;0.10;;;;;;;0.40;64.24;101985.50;4965443;28;20041;-74
2024/01/13 06:41:16;;;;;;;0.20;0.00;;;;;;;0.21;64.85;101981.69;4954516;28;20046;-73
2024/01/13 06:43:41;;;;;;;1.75;0.00;;;;;;;0.26;64.42;101974.06;4961424;28;20662;-73
2024/01/13 06:46:08;;;;;;;2.80;0.20;;;;;;;0.26;63.88;101984.38;4959512;28;20050;-72
2024/01/13 06:48:34;;;;;;;4.15;0.10;;;;;;;-0.24;65.09;101982.41;4958490;28;20749;-72
2024/01/13 06:51:00;;;;;;;0.45;0.08;;;;;;;-0.12;64.92;101981.84;4974166;28;20038;-66
2024/01/13 06:53:25;;;;;;;1.30;0.10;;;;;;;0.13;64.47;101983.22;4951566;28;20453;-67
2024/01/13 06:55:51;;;;;;;2.17;0.10;;;;;;;0.45;63.26;101965.00;4955374;28;20035;-69
2024/01/13 06:58:17;;;;;;;1.20;0.08;;;;;;;0.31;63.77;101961.31;4954369;28;20516;-69
2024/01/13 07:00:43;;;;;;;1.67;0.20;;;;;;;-0.00;64.91;101960.66;4962542;28;20042;-69
2024/01/13 07:03:08;;;;;;;2.10;0.22;;;;;;;0.19;64.51;101957.66;4957928;28;20131;-70
2024/01/13 07:05:33;;;;;;;3.00;0.50;;;;;;;0.47;63.82;101958.19;4957422;28;20046;-68
2024/01/13 07:08:00;;;;;;;1.42;0.20;;;;;;;0.16;64.41;101949.84;4957288;28;20495;-68
2024/01/13 07:10:28;;;;;;;1.52;0.10;;;;;;;0.14;64.76;101950.66;4959146;28;20073;-73
2024/01/13 07:12:54;;;;;;;1.90;0.10;;;;;;;0.24;64.17;101948.31;4950514;28;20046;-73
2024/01/13 07:15:20;;;;;;;4.32;0.30;;;;;;;0.28;63.94;101937.25;4937222;28;20034;-70
2024/01/13 07:17:46;;;;;;;5.40;0.45;;;;;;;0.21;64.34;101930.28;4946822;28;20154;-70
2024/01/13 07:20:11;;;;;;;8.13;0.60;;;;;;;0.24;65.11;101929.47;4943311;28;20853;-70
2024/01/13 07:22:37;;;;;;;0.95;0.20;;;;;;;0.62;63.38;101934.47;4915836;28;20775;-69
2024/01/13 07:25:04;;;;;;;2.72;0.50;;;;;;;0.10;65.10;101936.91;4933412;28;20274;-71
2024/01/13 07:27:29;;;;;;;8.38;0.40;;;;;;;0.18;65.47;101935.34;4964400;28;20042;-72
2024/01/13 07:29:55;;;;;;;4.82;0.40;;;;;;;0.04;65.25;101939.34;4937604;28;20417;-72
2024/01/13 07:32:21;;;;;;;4.97;0.32;;;;;;;-0.26;66.17;101931.81;4926569;28;20073;-68
2024/01/13 07:34:46;;;;;;;0.57;0.20;;;;;;;0.12;65.52;101940.34;4959508;28;20042;-68
2024/01/13 07:37:12;;;;;;;0.70;0.22;;;;;;;0.39;63.99;101934.00;4963728;28;20505;-73
2024/01/13 07:39:37;;;;;;;2.08;0.40;;;;;;;0.07;65.11;101936.81;4973717;28;20042;-72
2024/01/13 07:42:03;;;;;;;4.55;0.50;;;;;;;0.53;63.87;101937.72;4961869;28;20488;-67
2024/01/13 07:44:29;;;;;;;2.72;0.25;;;;;;;0.26;64.54;101938.06;4945966;28;20531;-67
2024/01/13 07:46:58;;;;;;;0.85;0.25;;;;;;;0.56;63.90;101935.22;4947200;28;20031;-66
2024/01/13 07:49:26;;;;;;;1.10;0.20;;;;;;;-0.00;65.13;101916.97;4947636;28;20134;-69
2024/01/13 07:51:53;;;;;;;0.88;0.20;;;;;;;0.28;64.52;101926.97;4963434;28;20034;-70
2024/01/13 07:54:19;;;;;;;1.77;0.30;;;;;;;0.22;64.73;101918.28;4967810;28;20051;-66
2024/01/13 07:56:44;;;;;;;1.20;0.32;;;;;;;0.21;65.23;101916.53;4956459;28;20037;-69
2024/01/13 07:59:10;;;;;;;4.30;0.75;;;;;;;0.10;64.82;101895.78;4956405;28;20042;-71
2024/01/13 08:01:35;;;;;;;0.73;0.20;;;;;;;0.19;64.76;101908.81;4970525;28;21561;-70
2024/01/13 08:04:01;;;;;;;0.63;0.20;;;;;;;-0.04;65.35;101902.31;4958676;28;20127;-67
2024/01/13 08:06:27;;;;;;;3.40;0.28;;;;;;;0.12;65.47;101903.50;4951490;28;20031;-68
2024/01/13 08:08:53;;;;;;;1.42;0.85;;;;;;;-0.33;66.14;101884.56;4958185;28;20030;-71
2024/01/13 08:11:19;;;;;;;1.38;0.22;;;;;;;-0.18;66.70;101879.75;4957573;28;20034;-70
2024/01/13 08:13:44;;;;;;;1.55;0.30;;;;;;;0.21;64.96;101868.56;4962396;28;20039;-68
2024/01/13 08:16:09;;;;;;;6.50;0.50;;;;;;;0.31;64.99;101863.59;4956530;28;20531;-66
2024/01/13 08:18:36;;;;;;;1.63;0.38;;;;;;;0.19;64.82;101865.09;4967134;28;20101;-71
2024/01/13 08:21:02;;;;;;;1.13;0.30;;;;;;;0.26;64.99;101860.94;4956592;28;20046;-68
2024/01/13 08:23:28;;;;;;;1.98;0.40;;;;;;;0.12;65.29;101868.34;4953666;28;20122;-67
2024/01/13 08:25:53;;;;;;;2.00;0.40;;;;;;;0.35;64.41;101860.25;4987739;28;20195;-66
2024/01/13 08:28:19;;;;;;;2.80;0.35;;;;;;;0.17;65.21;101855.63;4958429;28;20035;-67
2024/01/13 08:30:45;;;;;;;4.57;0.75;;;;;;;-0.07;66.04;101856.88;4962124;28;20057;-67
2024/01/13 08:33:11;;;;;;;1.23;0.50;;;;;;;0.07;65.76;101851.97;4962243;28;20347;-67
2024/01/13 08:35:37;;;;;;;1.95;0.43;;;;;;;-0.21;66.35;101853.16;4941015;28;20061;-66
2024/01/13 08:38:03;;;;;;;1.23;0.50;;;;;;;-0.14;66.19;101849.88;4926196;28;20022;-63
2024/01/13 08:40:29;;;;;;;2.38;0.30;;;;;;;-0.08;65.73;101833.69;4927012;28;20097;-65
2024/01/13 08:42:56;;;;;;;1.80;0.57;;;;;;;-0.61;66.95;101842.03;4917414;28;20034;-66
2024/01/13 08:45:29;;;;;;;2.80;0.68;;;;;;;-0.16;66.91;101841.25;4921171;28;20151;-66
2024/01/13 08:47:58;;;;;;;2.25;0.90;;;;;;;0.09;65.62;101842.59;4914439;28;20707;-67
2024/01/13 08:50:24;;;;;;;3.03;0.47;;;;;;;0.02;65.36;101835.63;4906252;28;20300;-66
2024/01/13 08:52:54;;;;;;;2.50;0.20;;;;;;;-0.27;66.69;101835.91;4921316;28;20046;-66
2024/01/13 08:55:20;;;;;;;1.48;0.85;;;;;;;-0.32;66.65;101836.66;4925719;28;20176;-67
2024/01/13 08:57:46;;;;;;;3.30;1.33;;;;;;;-0.21;67.11;101833.47;4946346;28;20025;-66
2024/01/13 09:00:13;;;;;;;4.45;1.25;;;;;;;0.03;66.01;101827.06;4959368;28;20365;-67
2024/01/13 09:02:39;;;;;;;6.18;1.92;;;;;;;0.09;66.11;101819.47;4953375;28;20138;-66
2024/01/13 09:05:08;;;;;;;7.65;2.08;;;;;;;0.01;66.03;101821.91;4959169;28;20097;-66
2024/01/13 09:07:35;;;;;;;9.00;2.50;;;;;;;0.13;66.00;101818.69;4952576;28;20070;-66
2024/01/13 09:10:02;;;;;;;6.55;2.47;;;;;;;0.09;66.46;101814.31;4954378;28;20465;-65
2024/01/13 09:12:27;;;;;;;12.77;3.95;;;;;;;0.05;66.33;101812.53;4938885;28;20038;-66
2024/01/13 09:14:53;;;;;;;10.80;3.25;;;;;;;0.05;66.07;101803.13;4955315;28;20461;-65
2024/01/13 09:17:18;;;;;;;10.25;2.55;;;;;;;0.30;65.88;101808.72;4959013;28;20520;-66
2024/01/13 09:19:44;;;;;;;11.95;3.45;;;;;;;0.33;65.71;101805.34;4952213;28;20050;-66
2024/01/13 09:22:09;;;;;;;10.90;3.47;;;;;;;0.14;65.87;101799.84;4958421;28;20042;-66
2024/01/13 09:24:38;;;;;;;9.95;3.30;;;;;;;0.31;64.90;101797.59;4947076;28;20042;-66
2024/01/13 09:27:04;;;;;;;13.00;4.15;;;;;;;0.49;64.59;101792.75;4944988;28;20034;-65
2024/01/13 09:29:29;;;;;;;14.48;3.58;;;;;;;0.77;64.69;101802.59;4953749;28;21135;-66
2024/01/13 09:31:55;;;;;;;11.27;3.80;;;;;;;0.38;65.21;101793.41;4956293;28;20050;-66
2024/01/13 09:34:21;;;;;;;11.88;4.43;;;;;;;0.28;65.81;101793.25;4957464;28;20054;-66
2024/01/13 09:36:46;;;;;;;12.75;4.57;;;;;;;0.61;65.07;101798.94;4947183;28;20835;-66
2024/01/13 09:39:13;;;;;;;12.05;4.95;;;;;;;0.03;65.99;101791.06;4953811;28;20414;-66
2024/01/13 09:41:38;;;;;;;17.13;6.07;;;;;;;0.61;64.93;101780.91;4953459;28;20030;-66
2024/01/13 09:44:22;;;;;;;25.40;5.50;;;;;;;0.29;66.00;101768.41;4959073;28;20244;-66
2024/01/13 09:46:52;;;;;;;11.93;5.22;;;;;;;0.57;65.24;101774.00;4951292;28;20779;-65
2024/01/13 09:49:20;;;;;;;13.80;5.72;;;;;;;0.61;65.33;101770.63;4956735;28;20046;-67
2024/01/13 09:51:46;;;;;;;17.63;6.32;;;;;;;0.57;64.92;101767.16;4951828;28;20143;-65
2024/01/13 09:54:22;;;;;;;18.75;6.20;;;;;;;0.60;65.72;101759.47;4958197;28;20786;-66
2024/01/13 09:56:48;;;;;;;15.20;4.68;;;;;;;0.61;65.88;101758.66;4953141;28;20030;-65
2024/01/13 09:59:15;;;;;;;13.73;4.30;;;;;;;0.78;65.17;101755.47;4955386;28;20042;-65
2024/01/13 10:01:41;;;;;;;16.77;5.13;;;;;;;0.86;65.25;101766.75;4952764;28;20497;-66
2024/01/13 10:04:08;;;;;;;13.38;4.63;;;;;;;1.09;64.74;101769.63;4958811;28;20097;-66
2024/01/13 10:06:36;;;;;;;13.77;4.72;;;;;;;1.18;64.30;101769.75;4950748;28;20932;-66
2024/01/13 10:09:03;;;;;;;16.55;5.28;;;;;;;1.38;63.66;101772.59;4958846;28;20034;-66
2024/01/13 10:11:28;;;;;;;18.30;4.85;;;;;;;1.23;63.82;101772.38;4966124;28;20049;-66
2024/01/13 10:14:01;;;;;;;13.32;4.80;;;;;;;1.25;64.41;101770.69;4939576;28;21554;-66
2024/01/13 10:16:29;;;;;;;17.15;4.95;;;;;;;1.20;64.23;101769.78;4930770;28;20544;-66
2024/01/13 10:18:57;;;;;;;13.95;4.93;;;;;;;1.19;64.24;101771.47;4927855;28;20058;-66
2024/01/13 10:21:23;;;;;;;16.98;4.75;;;;;;;1.53;63.27;101771.97;4929352;28;20160;-66
2024/01/13 10:23:53;;;;;;;14.32;4.32;;;;;;;1.47;63.73;101757.28;4936300;28;20105;-65
2024/01/13 10:26:19;;;;;;;11.43;2.95;;;;;;;1.26;64.33;101763.00;4901165;28;20513;-65
2024/01/13 10:28:44;;;;;;;15.48;2.95;;;;;;;1.69;63.12;101762.69;4900390;28;20201;-66
2024/01/13 10:31:10;;;;;;;9.57;2.60;;;;;;;1.80;62.57;101761.09;4905800;28;20042;-66
2024/01/13 10:33:40;;;;;;;7.57;2.50;;;;;;;1.62;63.06;101755.75;4889619;28;20352;-66
2024/01/13 10:36:06;;;;;;;15.48;2.30;;;;;;;1.81;62.24;101754.22;4920977;28;20072;-66
2024/01/13 10:38:33;;;;;;;9.15;2.25;;;;;;;1.38;63.30;101757.13;4952188;28;20074;-66
2024/01/13 10:40:59;;;;;;;10.88;2.05;;;;;;;1.18;64.65;101749.16;4946965;28;20680;-66
2024/01/13 10:43:26;;;;;;;5.70;1.95;;;;;;;1.18;63.81;101750.88;4953175;28;20042;-65
2024/01/13 10:45:56;;;;;;;5.28;1.63;;;;;;;1.58;63.31;101743.66;4955193;28;20163;-66
2024/01/13 10:48:39;;;;;;;6.53;2.05;;;;;;;1.27;64.42;101738.97;4958995;28;20061;-66
2024/01/13 10:51:13;;;;;;;8.85;2.58;;;;;;;1.51;63.76;101735.88;4955339;28;20042;-66
2024/01/13 10:53:42;;;;;;;6.68;1.35;;;;;;;1.22;64.68;101729.47;4967306;28;20171;-66
2024/01/13 10:56:09;;;;;;;6.70;1.60;;;;;;;1.35;64.23;101730.47;4959388;28;20050;-66
2024/01/13 10:58:35;;;;;;;10.77;1.42;;;;;;;1.43;64.40;101723.72;4958126;28;20081;-66
2024/01/13 11:01:01;;;;;;;6.93;1.83;;;;;;;1.36;64.28;101722.75;4948826;28;20046;-65
2024/01/13 11:03:29;;;;;;;5.90;0.80;;;;;;;1.22;64.99;101724.31;4953887;28;20045;-66
2024/01/13 11:05:54;;;;;;;2.63;0.50;;;;;;;1.24;64.93;101718.34;4966148;28;20421;-65
2024/01/13 11:08:20;;;;;;;10.80;1.08;;;;;;;0.91;66.15;101705.88;4960706;28;20046;-66
2024/01/13 11:10:50;;;;;;;12.43;1.25;;;;;;;1.25;65.57;101703.75;4951303;28;20066;-66
2024/01/13 11:13:50;;;;;;;7.35;0.77;;;;;;;1.28;65.13;101707.22;4951965;28;20133;-66
2024/01/13 11:16:24;;;;;;;3.88;0.50;;;;;;;1.09;66.03;101692.41;4949440;28;20493;-66
2024/01/13 11:18:54;;;;;;;4.63;1.00;;;;;;;1.37;64.84;101693.56;4940072;28;20046;-66
2024/01/13 11:21:28;;;;;;;6.68;0.80;;;;;;;0.84;66.21;101696.38;4956353;28;20034;-66
2024/01/13 11:23:53;;;;;;;6.57;0.80;;;;;;;0.86;66.60;101684.38;4951608;28;20038;-66
2024/01/13 11:26:21;;;;;;;6.65;1.45;;;;;;;0.79;67.13;101682.53;4963242;28;20497;-66
2024/01/13 11:28:52;;;;;;;14.55;1.27;;;;;;;0.63;67.15;101672.03;4939392;28;20522;-66